Terminal Aerodrome Forecast
Issued by NWS Duluth, MN

Home | Current Version | Previous Version | Text Only | Print | Product List | Glossary On
Versions: 1 2 3 4 5 6 7 8 9 10 11 12 13 14 15 16 17 18 19 20
000
FTUS43 KDLH 270538
TAFDLH
TAF
KDLH 270538Z 2706/2806 19005KT P6SM FEW060 BKN140
     FM271000 11005KT P6SM SCT050 BKN100
     FM272200 10009KT P6SM VCSH SCT040 BKN100
      TEMPO 2800/2804 6SM -TSRA BR BKN040CB=

USA.gov is the U.S. government's official web portal to all federal, state and local government web resources and services.